首页
METAR-TAF:

METAR-TAF

机场 :

克拉約瓦, 罗马尼亚

纬度: 44-14N, 经度: 023-52E, 海拔: 192米

当前天气观测

该预报发布于29分钟前的03:00 UTC
风速5节,风向东转东北
温度 1°C
湿度 86%
气压 1010 hPa
能見度: 7000

METAR: LRCV 230300Z 07005KT 7000 NSC 01/M01 Q1010

时间: 05:29 (03:29 UTC)

预报

该预报发布于1小时和29分钟前的02:00 UTC
预报有效从23日的 03点(UTC)到 23日的 12点(UTC)
风速6节,风向东转东北
能见度10公里或以上
1500米以下无云,无积雨云
短暂存在
从 23日的 03点(UTC)到 23日的 06点(UTC)
能見度: 3000
轻雾

TAF: LRCV 230200Z 2303/2312 07006KT CAVOK TEMPO 2303/2306 3000 BR

超过4000个机场的气象观测和天气预报(METAR&TAF报告)。

可查询的气象台以黄色和红色小点在地图上表示。

将鼠标移到小点上方,可查看气象台名称。

然后点击查看天气观测和预报。

如需切换地图:点击带黑十字的绿色按钮放大地图;点击带横线的绿色按钮缩小地图;或者点击绿色箭头查看邻近地区的地图。


METAR-TAF: